Terminal Aerodrome Forecast
Issued by NWS Cleveland, OH

Current Version | Previous Version | Text Only | Print | Product List | Glossary On
Versions: 1 2 3 4 5 6 7 8 9 10 11 12 13 14 15 16 17
000
FTUS41 KCLE 260500
TAFYNG
TAF
KYNG 260522Z 2606/2706 29008KT P6SM SKC
     FM261500 28012G20KT P6SM SKC
     FM262000 28008KT P6SM SKC=

USA.gov is the U.S. government's official web portal to all federal, state and local government web resources and services.